createdAt,value
2022-08-26T00:00:53.770Z,29.07
2022-08-26T00:03:23.923Z,29.06
2022-08-26T00:05:52.030Z,28.98
2022-08-26T00:08:21.619Z,28.93
2022-08-26T00:10:49.597Z,30.02
2022-08-26T00:13:19.625Z,30.23
2022-08-26T00:15:48.924Z,29.27
2022-08-26T00:18:22.293Z,28.98
2022-08-26T00:20:51.737Z,28.90
2022-08-26T00:23:20.797Z,28.96
2022-08-26T00:25:53.747Z,28.87
2022-08-26T00:28:22.236Z,29.85
2022-08-26T00:30:51.731Z,29.04
2022-08-26T00:33:21.315Z,29.06
2022-08-26T00:35:50.050Z,29.01
2022-08-26T00:38:22.887Z,28.99
2022-08-26T00:40:54.289Z,29.00
2022-08-26T00:43:24.647Z,28.95
2022-08-26T00:46:06.851Z,29.14
2022-08-26T00:48:38.146Z,28.95
2022-08-26T00:51:15.684Z,28.98
2022-08-26T00:53:54.215Z,29.08
2022-08-26T00:56:33.501Z,29.04
2022-08-26T00:59:05.600Z,28.87
2022-08-26T01:01:34.954Z,28.79
2022-08-26T01:04:03.338Z,28.91
2022-08-26T01:06:31.755Z,28.87
2022-08-26T01:09:00.461Z,28.92
2022-08-26T01:11:28.821Z,28.83
2022-08-26T01:14:00.331Z,28.98
2022-08-26T01:16:33.543Z,29.06
2022-08-26T01:19:10.777Z,29.03
2022-08-26T01:21:50.198Z,29.22
2022-08-26T01:24:19.724Z,29.09
2022-08-26T01:26:49.112Z,29.01
2022-08-26T01:29:20.117Z,29.98
2022-08-26T01:31:55.720Z,29.33
2022-08-26T01:34:30.822Z,29.26
2022-08-26T01:37:14.176Z,29.49
2022-08-26T01:39:47.990Z,29.21
2022-08-26T01:42:19.397Z,29.26
2022-08-26T01:45:18.805Z,29.43
2022-08-26T01:47:57.118Z,29.44
2022-08-26T01:50:35.869Z,29.42
2022-08-26T01:53:10.590Z,29.43
2022-08-26T01:55:42.922Z,29.37
2022-08-26T01:58:18.176Z,29.49
2022-08-26T02:00:48.035Z,29.43
2022-08-26T02:03:22.051Z,29.43
2022-08-26T02:05:55.736Z,29.48
2022-08-26T02:08:48.199Z,29.52
2022-08-26T02:11:30.047Z,29.48
2022-08-26T02:14:04.205Z,29.54
2022-08-26T02:16:38.889Z,29.60
2022-08-26T02:19:17.464Z,29.76
2022-08-26T02:22:08.570Z,29.64
2022-08-26T02:25:16.435Z,29.94
2022-08-26T02:27:49.272Z,29.78
2022-08-26T02:30:22.469Z,29.70
2022-08-26T02:32:52.520Z,29.64
2022-08-26T02:35:22.639Z,29.61
2022-08-26T02:37:52.822Z,29.57
2022-08-26T02:40:26.503Z,29.56
2022-08-26T02:42:57.087Z,29.34
2022-08-26T02:45:28.904Z,29.40
2022-08-26T02:47:59.694Z,29.31
2022-08-26T02:50:29.114Z,29.39
2022-08-26T02:52:57.978Z,29.38
2022-08-26T02:55:27.084Z,29.45
2022-08-26T02:57:56.263Z,29.43
2022-08-26T03:00:25.002Z,29.39
2022-08-26T03:02:54.760Z,29.34
2022-08-26T03:05:24.179Z,29.35
2022-08-26T03:07:53.431Z,29.28
2022-08-26T03:10:23.179Z,29.39
2022-08-26T03:12:55.344Z,29.30
2022-08-26T03:15:24.956Z,29.41
2022-08-26T03:17:53.917Z,29.29
2022-08-26T03:20:26.004Z,29.38
2022-08-26T03:22:54.122Z,29.37
2022-08-26T03:25:26.070Z,29.37
2022-08-26T03:27:54.456Z,29.36
2022-08-26T03:30:45.449Z,29.36
2022-08-26T03:33:14.853Z,29.30
2022-08-26T03:35:45.600Z,29.32
2022-08-26T03:38:14.277Z,29.42
2022-08-26T03:40:44.119Z,29.46
2022-08-26T03:43:12.958Z,29.41
2022-08-26T03:45:42.635Z,29.44
2022-08-26T03:48:11.752Z,29.37
2022-08-26T03:50:40.121Z,30.43
2022-08-26T03:53:12.850Z,29.59
2022-08-26T03:55:43.116Z,29.42
2022-08-26T03:58:11.696Z,29.36
2022-08-26T04:00:40.009Z,29.43
2022-08-26T04:03:09.925Z,29.40
2022-08-26T04:05:38.617Z,29.51
2022-08-26T04:08:07.094Z,29.40
2022-08-26T04:10:38.724Z,29.47
2022-08-26T04:13:07.145Z,29.42
2022-08-26T04:15:35.562Z,29.53
2022-08-26T04:18:04.810Z,29.27
2022-08-26T04:20:33.060Z,29.33
2022-08-26T04:23:01.216Z,29.41
2022-08-26T04:25:29.874Z,29.49
2022-08-26T04:27:57.990Z,29.48
2022-08-26T04:30:26.432Z,29.56
2022-08-26T04:32:54.915Z,29.49
2022-08-26T04:35:25.974Z,29.55
2022-08-26T04:37:54.503Z,29.51
2022-08-26T04:40:23.588Z,29.52
2022-08-26T04:42:51.805Z,29.57
2022-08-26T04:45:22.593Z,29.54
2022-08-26T04:47:56.754Z,29.77
2022-08-26T04:50:26.561Z,29.67
2022-08-26T04:52:55.786Z,29.72
2022-08-26T04:55:38.461Z,29.74
2022-08-26T04:58:11.591Z,29.69
2022-08-26T05:00:39.879Z,29.71
2022-08-26T05:03:10.482Z,29.91
2022-08-26T05:05:45.603Z,30.08
2022-08-26T05:08:15.558Z,30.22
2022-08-26T05:10:55.062Z,30.71
2022-08-26T05:13:29.631Z,31.00
2022-08-26T05:16:00.024Z,31.06
2022-08-26T05:18:30.663Z,31.11
2022-08-26T05:21:01.592Z,31.37
2022-08-26T05:23:32.398Z,31.49
2022-08-26T05:26:01.572Z,31.57
2022-08-26T05:28:33.260Z,31.46
2022-08-26T05:31:02.384Z,31.57
2022-08-26T05:33:30.601Z,31.56
2022-08-26T05:36:08.187Z,31.75
2022-08-26T05:38:39.339Z,31.58
2022-08-26T05:41:16.733Z,31.86
2022-08-26T05:43:45.428Z,31.71
2022-08-26T05:46:13.803Z,31.85
2022-08-26T05:48:44.207Z,32.82
2022-08-26T05:51:13.384Z,32.18
2022-08-26T05:53:43.933Z,32.07
2022-08-26T05:56:26.428Z,31.93
2022-08-26T05:58:56.272Z,32.00
2022-08-26T06:01:29.042Z,32.22
2022-08-26T06:04:01.594Z,32.34
2022-08-26T06:06:36.510Z,32.56
2022-08-26T06:09:10.861Z,32.72
2022-08-26T06:11:40.599Z,32.42
2022-08-26T06:14:08.910Z,32.56
2022-08-26T06:16:40.906Z,32.75
2022-08-26T06:19:11.521Z,32.67
2022-08-26T06:21:42.510Z,32.82
2022-08-26T06:24:32.236Z,32.43
2022-08-26T06:27:03.305Z,32.23
2022-08-26T06:29:34.384Z,32.18
2022-08-26T06:32:05.492Z,32.15
2022-08-26T06:34:34.318Z,32.16
2022-08-26T06:37:03.629Z,31.70
2022-08-26T06:39:32.252Z,31.74
2022-08-26T06:42:06.629Z,32.08
2022-08-26T06:44:36.731Z,31.99
2022-08-26T06:47:05.267Z,32.08
2022-08-26T06:49:33.522Z,31.93
2022-08-26T06:52:01.589Z,31.98
2022-08-26T06:54:32.754Z,31.94
2022-08-26T06:57:01.479Z,31.92
2022-08-26T06:59:31.461Z,32.13
2022-08-26T07:02:00.011Z,32.18
2022-08-26T07:04:28.476Z,32.00
2022-08-26T07:06:57.080Z,32.03
2022-08-26T07:09:30.744Z,32.07
2022-08-26T07:11:59.556Z,32.41
2022-08-26T07:14:28.307Z,32.33
2022-08-26T07:16:56.471Z,32.39
2022-08-26T07:19:30.167Z,32.46
2022-08-26T07:22:05.382Z,32.82
2022-08-26T07:24:40.661Z,33.16
2022-08-26T07:27:15.259Z,33.04
2022-08-26T07:29:45.606Z,32.86
2022-08-26T07:32:16.317Z,32.88
2022-08-26T07:34:44.578Z,32.65
2022-08-26T07:37:12.855Z,33.08
2022-08-26T07:39:44.752Z,32.93
2022-08-26T07:42:15.250Z,33.22
2022-08-26T07:44:44.624Z,33.51
2022-08-26T07:47:25.115Z,33.49
2022-08-26T07:49:57.852Z,33.32
2022-08-26T07:52:28.435Z,33.20
2022-08-26T07:54:59.648Z,33.00
2022-08-26T07:57:29.244Z,33.14
2022-08-26T07:59:58.682Z,32.59
2022-08-26T08:02:29.644Z,32.42
2022-08-26T08:05:00.266Z,32.60
2022-08-26T08:07:44.590Z,32.42
2022-08-26T08:10:17.743Z,32.70
2022-08-26T08:12:48.180Z,32.71
2022-08-26T08:15:18.313Z,32.77
2022-08-26T08:17:50.386Z,32.94
2022-08-26T08:20:20.595Z,33.63
2022-08-26T08:22:50.435Z,33.93
2022-08-26T08:25:20.228Z,34.15
2022-08-26T08:27:51.158Z,34.14
2022-08-26T08:30:22.686Z,34.06
2022-08-26T08:32:52.417Z,33.60
2022-08-26T08:35:22.940Z,33.60
2022-08-26T08:37:54.646Z,33.88
2022-08-26T08:40:26.591Z,33.93
2022-08-26T08:43:10.221Z,34.15
2022-08-26T08:45:44.040Z,34.41
2022-08-26T08:48:32.116Z,34.70
2022-08-26T08:51:28.122Z,35.26
2022-08-26T08:53:57.252Z,34.90
2022-08-26T08:56:40.755Z,35.26
2022-08-26T08:59:20.004Z,35.36
2022-08-26T09:02:06.725Z,35.72
2022-08-26T09:05:20.764Z,36.01
2022-08-26T09:08:03.063Z,35.93
2022-08-26T09:10:52.957Z,36.12
2022-08-26T09:13:25.442Z,36.86
2022-08-26T09:16:03.644Z,38.11
2022-08-26T09:18:41.127Z,39.12
2022-08-26T09:21:17.924Z,40.37
2022-08-26T09:23:49.700Z,41.44
2022-08-26T09:26:21.464Z,42.62
2022-08-26T09:29:03.997Z,43.60
2022-08-26T09:31:38.012Z,43.44
2022-08-26T09:34:12.753Z,43.24
2022-08-26T09:36:48.932Z,43.52
2022-08-26T09:39:37.752Z,44.13
2022-08-26T09:42:09.608Z,44.09
2022-08-26T09:44:59.817Z,44.99
2022-08-26T09:48:01.495Z,45.13
2022-08-26T09:50:34.026Z,45.08
2022-08-26T09:53:28.573Z,45.14
2022-08-26T09:56:28.098Z,45.86
2022-08-26T09:58:57.960Z,45.22
2022-08-26T10:01:30.878Z,45.37
2022-08-26T10:04:14.444Z,45.82
2022-08-26T10:07:04.111Z,46.45
2022-08-26T10:09:36.817Z,46.36
2022-08-26T10:12:12.924Z,45.73
2022-08-26T10:14:52.491Z,46.21
2022-08-26T10:17:37.076Z,46.97
2022-08-26T10:20:23.654Z,47.15
2022-08-26T10:23:04.234Z,47.97
2022-08-26T10:25:46.740Z,47.17
2022-08-26T10:28:26.036Z,47.46
2022-08-26T10:31:01.918Z,47.68
2022-08-26T10:33:31.047Z,47.09
2022-08-26T10:36:12.264Z,46.68
2022-08-26T10:38:45.434Z,46.69
2022-08-26T10:41:20.840Z,46.18
2022-08-26T10:43:59.964Z,47.23
2022-08-26T10:46:40.156Z,47.29
2022-08-26T10:49:13.726Z,47.63
2022-08-26T10:52:16.591Z,48.54
2022-08-26T10:54:58.642Z,48.71
2022-08-26T10:57:45.959Z,48.43
2022-08-26T11:00:40.060Z,47.76
2022-08-26T11:03:46.632Z,48.15
2022-08-26T11:06:26.379Z,47.75
2022-08-26T11:09:01.538Z,47.62
2022-08-26T11:11:46.958Z,48.59
2022-08-26T11:14:28.511Z,48.80
2022-08-26T11:17:00.033Z,48.16
2022-08-26T11:19:50.587Z,48.38
2022-08-26T11:22:47.580Z,48.74
2022-08-26T11:25:18.453Z,48.10
2022-08-26T11:27:52.474Z,47.77
2022-08-26T11:30:21.837Z,47.87
2022-08-26T11:32:55.569Z,48.43
2022-08-26T11:35:24.677Z,48.52
2022-08-26T11:38:04.380Z,49.22
2022-08-26T11:40:40.968Z,48.16
2022-08-26T11:43:20.133Z,48.52
2022-08-26T11:45:59.897Z,48.24
2022-08-26T11:48:31.273Z,47.78
2022-08-26T11:51:05.615Z,47.87
2022-08-26T11:53:47.161Z,48.50
2022-08-26T11:56:32.826Z,49.10
2022-08-26T11:59:04.321Z,48.14
2022-08-26T12:01:37.206Z,48.40
2022-08-26T12:04:08.429Z,48.30
2022-08-26T12:06:45.931Z,47.70
2022-08-26T12:09:22.192Z,46.13
2022-08-26T12:11:51.068Z,43.67
2022-08-26T12:14:23.747Z,42.51
2022-08-26T12:16:56.851Z,41.76
2022-08-26T12:19:35.446Z,41.37
2022-08-26T12:22:26.250Z,41.12
2022-08-26T12:25:01.693Z,39.92
2022-08-26T12:27:40.323Z,39.02
2022-08-26T12:30:12.221Z,38.53
2022-08-26T12:32:57.452Z,38.59
2022-08-26T12:35:29.611Z,38.08
2022-08-26T12:37:59.029Z,38.54
2022-08-26T12:40:33.219Z,38.29
2022-08-26T12:43:03.891Z,37.88
2022-08-26T12:45:35.457Z,37.79
2022-08-26T12:48:10.441Z,37.65
2022-08-26T12:50:46.436Z,37.46
2022-08-26T12:53:26.845Z,38.05
2022-08-26T12:56:04.905Z,39.46
2022-08-26T12:58:35.778Z,40.80
2022-08-26T13:01:04.918Z,41.99
2022-08-26T13:03:39.578Z,42.91
2022-08-26T13:06:17.033Z,43.45
2022-08-26T13:08:48.902Z,43.53
2022-08-26T13:11:21.278Z,42.98
2022-08-26T13:14:12.086Z,43.07
2022-08-26T13:16:47.486Z,43.42
2022-08-26T13:19:22.335Z,43.60
2022-08-26T13:21:56.757Z,43.82
2022-08-26T13:24:57.429Z,43.92
2022-08-26T13:27:27.597Z,43.30
2022-08-26T13:29:58.011Z,42.94
2022-08-26T13:32:28.410Z,42.71
2022-08-26T13:34:58.286Z,43.44
2022-08-26T13:37:34.418Z,43.42
2022-08-26T13:40:08.459Z,43.45
2022-08-26T13:42:37.399Z,43.46
2022-08-26T13:45:18.818Z,42.99
2022-08-26T13:48:05.515Z,43.19
2022-08-26T13:50:35.550Z,43.22
2022-08-26T13:53:04.052Z,42.97
2022-08-26T13:55:32.089Z,42.91
2022-08-26T13:58:00.489Z,42.76
2022-08-26T14:00:29.020Z,43.46
2022-08-26T14:02:59.116Z,40.84
2022-08-26T14:05:28.784Z,40.70
2022-08-26T14:07:57.935Z,41.01
2022-08-26T14:10:31.150Z,41.09
2022-08-26T14:12:59.864Z,40.23
2022-08-26T14:15:29.178Z,39.94
2022-08-26T14:17:57.410Z,40.19
2022-08-26T14:20:30.754Z,40.84
2022-08-26T14:23:15.689Z,40.91
2022-08-26T14:25:46.049Z,40.58
2022-08-26T14:28:15.286Z,40.02
2022-08-26T14:30:47.349Z,39.90
2022-08-26T14:33:18.384Z,39.54
2022-08-26T14:35:49.159Z,39.20
2022-08-26T14:38:20.336Z,38.61
2022-08-26T14:40:49.412Z,38.10
2022-08-26T14:43:18.317Z,37.63
2022-08-26T14:45:49.145Z,37.00
2022-08-26T14:48:22.730Z,36.61
2022-08-26T14:50:54.059Z,36.21
2022-08-26T14:53:45.637Z,36.00
2022-08-26T14:56:16.814Z,35.90
2022-08-26T14:58:48.794Z,35.82
2022-08-26T15:01:40.626Z,35.57
2022-08-26T15:04:41.075Z,35.45
2022-08-26T15:07:12.654Z,35.22
2022-08-26T15:09:44.776Z,34.99
2022-08-26T15:12:16.334Z,34.82
2022-08-26T15:14:51.919Z,34.56
2022-08-26T15:17:25.348Z,34.46
2022-08-26T15:19:59.265Z,34.03
2022-08-26T15:22:40.654Z,33.74
2022-08-26T15:25:09.957Z,33.49
2022-08-26T15:27:42.831Z,33.39
2022-08-26T15:30:12.763Z,33.32
2022-08-26T15:32:42.270Z,33.25
2022-08-26T15:35:10.374Z,33.07
2022-08-26T15:37:40.380Z,32.86
2022-08-26T15:40:10.276Z,32.80
2022-08-26T15:42:39.439Z,32.75
2022-08-26T15:45:08.528Z,32.61
2022-08-26T15:47:58.140Z,32.53
2022-08-26T15:50:26.534Z,32.57
2022-08-26T15:52:56.226Z,32.42
2022-08-26T15:55:27.042Z,32.25
2022-08-26T15:57:57.976Z,32.09
2022-08-26T16:00:28.274Z,31.96
2022-08-26T16:03:02.675Z,32.15
2022-08-26T16:05:37.311Z,31.99
2022-08-26T16:08:16.733Z,31.29
2022-08-26T16:10:51.853Z,31.21
2022-08-26T16:13:24.081Z,31.05
2022-08-26T16:15:59.833Z,30.82
2022-08-26T16:18:30.103Z,30.62
2022-08-26T16:21:13.773Z,30.40
2022-08-26T16:23:45.659Z,30.43
2022-08-26T16:26:19.823Z,30.60
2022-08-26T16:28:48.586Z,30.49
2022-08-26T16:31:22.210Z,30.46
2022-08-26T16:33:53.213Z,30.37
2022-08-26T16:36:24.593Z,30.46
2022-08-26T16:38:57.323Z,30.56
2022-08-26T16:41:34.720Z,30.53
2022-08-26T16:44:05.598Z,30.51
2022-08-26T16:46:37.291Z,30.64
2022-08-26T16:49:07.574Z,30.75
2022-08-26T16:51:38.321Z,30.74
2022-08-26T16:54:10.561Z,30.76
2022-08-26T16:56:45.862Z,30.75
2022-08-26T16:59:21.207Z,30.77
2022-08-26T17:01:56.208Z,30.72
2022-08-26T17:04:29.002Z,30.77
2022-08-26T17:07:02.751Z,30.69
2022-08-26T17:09:37.304Z,30.83
2022-08-26T17:12:12.076Z,30.72
2022-08-26T17:14:42.652Z,30.79
2022-08-26T17:17:17.069Z,30.83
2022-08-26T17:19:48.017Z,30.77
2022-08-26T17:22:17.875Z,30.70
2022-08-26T17:24:50.252Z,30.86
2022-08-26T17:27:22.783Z,30.67
2022-08-26T17:29:54.755Z,30.55
2022-08-26T17:32:25.023Z,30.55
2022-08-26T17:34:54.323Z,30.56
2022-08-26T17:37:24.406Z,30.70
2022-08-26T17:39:54.701Z,30.63
2022-08-26T17:42:31.431Z,30.82
2022-08-26T17:45:05.262Z,30.83
2022-08-26T17:47:39.383Z,30.67
2022-08-26T17:50:15.975Z,30.62
2022-08-26T17:52:47.214Z,30.52
2022-08-26T17:55:18.184Z,30.51
2022-08-26T17:57:53.584Z,30.42
2022-08-26T18:00:27.045Z,30.39
2022-08-26T18:03:00.038Z,30.29
2022-08-26T18:05:32.176Z,30.31
2022-08-26T18:08:04.475Z,30.18
2022-08-26T18:10:41.549Z,30.21
2022-08-26T18:13:12.058Z,30.14
2022-08-26T18:15:46.119Z,30.35
2022-08-26T18:18:16.369Z,30.16
2022-08-26T18:20:46.229Z,30.10
2022-08-26T18:23:24.802Z,31.11
2022-08-26T18:25:56.309Z,30.14
2022-08-26T18:28:25.235Z,29.83
2022-08-26T18:30:54.157Z,29.82
2022-08-26T18:33:26.663Z,29.80
2022-08-26T18:35:59.046Z,29.71
2022-08-26T18:38:29.036Z,29.60
2022-08-26T18:41:01.002Z,29.63
2022-08-26T18:43:29.793Z,29.39
2022-08-26T18:46:09.869Z,29.74
2022-08-26T18:48:40.661Z,29.52
2022-08-26T18:51:16.369Z,29.48
2022-08-26T18:53:54.159Z,29.46
2022-08-26T18:56:26.095Z,29.30
2022-08-26T18:59:02.182Z,29.44
2022-08-26T19:01:34.780Z,29.42
2022-08-26T19:04:05.674Z,29.30
2022-08-26T19:06:36.021Z,29.22
2022-08-26T19:09:09.338Z,29.23
2022-08-26T19:11:42.900Z,30.29
2022-08-26T19:14:20.637Z,29.53
2022-08-26T19:16:53.785Z,29.46
2022-08-26T19:19:24.449Z,29.22
2022-08-26T19:21:53.535Z,29.29
2022-08-26T19:24:22.986Z,29.29
2022-08-26T19:27:00.866Z,29.47
2022-08-26T19:29:34.781Z,29.33
2022-08-26T19:32:07.766Z,29.38
2022-08-26T19:34:36.944Z,29.26
2022-08-26T19:37:07.008Z,29.12
2022-08-26T19:39:38.593Z,29.32
2022-08-26T19:42:08.053Z,29.29
2022-08-26T19:44:56.307Z,29.25
2022-08-26T19:47:26.959Z,29.15
2022-08-26T19:49:59.842Z,29.19
2022-08-26T19:52:36.852Z,29.18
2022-08-26T19:55:09.578Z,29.13
2022-08-26T19:57:40.556Z,29.05
2022-08-26T20:00:15.445Z,29.01
2022-08-26T20:02:45.855Z,28.89
2022-08-26T20:05:16.695Z,28.97
2022-08-26T20:07:45.455Z,28.82
2022-08-26T20:10:15.638Z,28.83
2022-08-26T20:12:46.700Z,28.79
2022-08-26T20:15:20.468Z,28.65
2022-08-26T20:17:51.052Z,28.62
2022-08-26T20:20:39.194Z,28.71
2022-08-26T20:23:09.767Z,28.60
2022-08-26T20:25:38.319Z,28.62
2022-08-26T20:28:06.404Z,28.57
2022-08-26T20:30:34.536Z,28.47
2022-08-26T20:33:03.112Z,28.49
2022-08-26T20:35:31.174Z,28.43
2022-08-26T20:37:59.639Z,28.47
2022-08-26T20:40:29.716Z,28.56
2022-08-26T20:42:59.175Z,28.56
2022-08-26T20:45:27.342Z,28.48
2022-08-26T20:47:55.778Z,28.49
2022-08-26T20:50:24.454Z,28.44
2022-08-26T20:53:10.773Z,28.54
2022-08-26T20:55:39.913Z,28.61
2022-08-26T20:58:08.281Z,28.66
2022-08-26T21:00:38.763Z,28.77
2022-08-26T21:03:07.963Z,28.68
2022-08-26T21:05:36.307Z,28.76
2022-08-26T21:08:04.816Z,28.76
2022-08-26T21:10:34.169Z,28.84
2022-08-26T21:13:02.384Z,28.69
2022-08-26T21:15:30.619Z,28.67
2022-08-26T21:18:00.986Z,28.54
2022-08-26T21:20:32.791Z,29.47
2022-08-26T21:23:12.207Z,28.67
2022-08-26T21:25:45.933Z,28.57
2022-08-26T21:28:14.942Z,28.42
2022-08-26T21:30:44.331Z,28.42
2022-08-26T21:33:12.671Z,29.50
2022-08-26T21:35:44.796Z,28.62
2022-08-26T21:38:14.082Z,28.48
2022-08-26T21:40:42.923Z,28.54
2022-08-26T21:43:13.134Z,28.59
2022-08-26T21:45:57.123Z,28.58
2022-08-26T21:48:29.593Z,28.56
2022-08-26T21:51:05.779Z,28.50
2022-08-26T21:53:34.428Z,28.38
2022-08-26T21:56:16.478Z,28.59
2022-08-26T21:58:52.370Z,28.38
2022-08-26T22:01:24.273Z,28.31
2022-08-26T22:03:55.916Z,28.36
2022-08-26T22:06:28.419Z,28.52
2022-08-26T22:08:57.401Z,28.32
2022-08-26T22:11:28.416Z,28.57
2022-08-26T22:13:57.232Z,28.56
2022-08-26T22:16:28.990Z,28.57
2022-08-26T22:18:58.845Z,28.66
2022-08-26T22:21:31.613Z,28.67
2022-08-26T22:24:00.841Z,28.74
2022-08-26T22:26:34.150Z,28.76
2022-08-26T22:29:07.282Z,28.68
2022-08-26T22:31:37.855Z,28.66
2022-08-26T22:34:10.919Z,28.64
2022-08-26T22:36:44.180Z,28.66
2022-08-26T22:39:14.609Z,28.68
2022-08-26T22:41:45.733Z,28.64
2022-08-26T22:44:13.881Z,28.58
2022-08-26T22:46:44.166Z,28.51
2022-08-26T22:49:17.029Z,28.63
2022-08-26T22:51:47.763Z,28.66
2022-08-26T22:54:17.524Z,28.54
2022-08-26T22:56:46.709Z,28.53
2022-08-26T22:59:17.388Z,28.59
2022-08-26T23:01:48.170Z,28.51
2022-08-26T23:04:19.089Z,28.36
2022-08-26T23:06:50.476Z,28.30
2022-08-26T23:09:19.849Z,28.31
2022-08-26T23:11:51.881Z,28.37
2022-08-26T23:14:20.781Z,28.39
2022-08-26T23:16:50.398Z,28.51
2022-08-26T23:19:23.616Z,28.52
2022-08-26T23:21:53.750Z,28.44
2022-08-26T23:24:23.710Z,28.40
2022-08-26T23:26:52.837Z,28.35
2022-08-26T23:29:21.858Z,28.30
2022-08-26T23:31:50.933Z,28.37
2022-08-26T23:34:42.349Z,28.40
2022-08-26T23:37:10.796Z,28.27
2022-08-26T23:39:39.800Z,28.17
2022-08-26T23:42:08.938Z,28.12
2022-08-26T23:44:37.517Z,29.11
2022-08-26T23:47:07.219Z,28.28
2022-08-26T23:49:36.460Z,28.14
2022-08-26T23:52:26.050Z,28.16
2022-08-26T23:54:54.701Z,28.10
2022-08-26T23:57:26.197Z,28.08
2022-08-26T23:59:54.807Z,27.91
